sensor_id;sensor_type;location;lat;lon;timestamp;P1;durP1;ratioP1;P2;durP2;ratioP2
76127;SDS011;64873;50.102;14.434;2023-04-15T00:02:17;2.40;;;1.83;;
76127;SDS011;64873;50.102;14.434;2023-04-15T00:04:46;2.63;;;1.70;;
76127;SDS011;64873;50.102;14.434;2023-04-15T00:07:12;2.60;;;1.70;;
76127;SDS011;64873;50.102;14.434;2023-04-15T00:09:39;2.70;;;1.65;;
76127;SDS011;64873;50.102;14.434;2023-04-15T00:12:06;3.33;;;2.42;;
76127;SDS011;64873;50.102;14.434;2023-04-15T00:14:33;2.33;;;1.90;;
76127;SDS011;64873;50.102;14.434;2023-04-15T00:16:59;3.78;;;2.05;;
76127;SDS011;64873;50.102;14.434;2023-04-15T00:19:25;2.40;;;1.58;;
76127;SDS011;64873;50.102;14.434;2023-04-15T00:21:50;1.85;;;1.27;;
76127;SDS011;64873;50.102;14.434;2023-04-15T00:24:16;2.45;;;1.60;;
76127;SDS011;64873;50.102;14.434;2023-04-15T00:26:41;2.05;;;1.40;;
76127;SDS011;64873;50.102;14.434;2023-04-15T00:29:07;2.17;;;1.40;;
76127;SDS011;64873;50.102;14.434;2023-04-15T00:31:32;8.73;;;1.13;;
76127;SDS011;64873;50.102;14.434;2023-04-15T00:33:58;1.95;;;1.05;;
76127;SDS011;64873;50.102;14.434;2023-04-15T00:36:24;1.02;;;0.82;;
76127;SDS011;64873;50.102;14.434;2023-04-15T00:38:50;1.17;;;0.73;;
76127;SDS011;64873;50.102;14.434;2023-04-15T00:41:15;0.85;;;0.60;;
76127;SDS011;64873;50.102;14.434;2023-04-15T00:43:43;2.30;;;0.98;;
76127;SDS011;64873;50.102;14.434;2023-04-15T00:46:08;2.90;;;1.23;;
76127;SDS011;64873;50.102;14.434;2023-04-15T00:48:36;1.05;;;0.70;;
76127;SDS011;64873;50.102;14.434;2023-04-15T00:51:02;1.10;;;0.60;;
76127;SDS011;64873;50.102;14.434;2023-04-15T00:53:28;1.25;;;0.90;;
76127;SDS011;64873;50.102;14.434;2023-04-15T00:55:53;1.10;;;0.82;;
76127;SDS011;64873;50.102;14.434;2023-04-15T00:58:20;1.33;;;0.80;;
76127;SDS011;64873;50.102;14.434;2023-04-15T01:00:45;1.30;;;1.00;;
76127;SDS011;64873;50.102;14.434;2023-04-15T01:03:12;2.55;;;0.88;;
76127;SDS011;64873;50.102;14.434;2023-04-15T01:05:38;1.40;;;1.00;;
76127;SDS011;64873;50.102;14.434;2023-04-15T01:08:04;2.10;;;1.35;;
76127;SDS011;64873;50.102;14.434;2023-04-15T01:10:30;1.35;;;0.90;;
76127;SDS011;64873;50.102;14.434;2023-04-15T01:12:56;1.50;;;1.13;;
76127;SDS011;64873;50.102;14.434;2023-04-15T01:15:22;1.60;;;0.93;;
76127;SDS011;64873;50.102;14.434;2023-04-15T01:17:48;1.17;;;0.82;;
76127;SDS011;64873;50.102;14.434;2023-04-15T01:20:14;2.17;;;1.10;;
76127;SDS011;64873;50.102;14.434;2023-04-15T01:22:40;1.30;;;0.63;;
76127;SDS011;64873;50.102;14.434;2023-04-15T01:25:08;1.55;;;0.98;;
76127;SDS011;64873;50.102;14.434;2023-04-15T01:27:39;1.50;;;1.08;;
76127;SDS011;64873;50.102;14.434;2023-04-15T01:30:06;1.50;;;1.08;;
76127;SDS011;64873;50.102;14.434;2023-04-15T01:32:32;1.20;;;0.90;;
76127;SDS011;64873;50.102;14.434;2023-04-15T01:34:58;2.00;;;1.30;;
76127;SDS011;64873;50.102;14.434;2023-04-15T01:37:24;2.88;;;1.30;;
76127;SDS011;64873;50.102;14.434;2023-04-15T01:39:50;0.93;;;0.73;;
76127;SDS011;64873;50.102;14.434;2023-04-15T01:42:16;2.15;;;1.10;;
76127;SDS011;64873;50.102;14.434;2023-04-15T01:44:41;1.45;;;0.80;;
76127;SDS011;64873;50.102;14.434;2023-04-15T01:47:07;2.10;;;1.40;;
76127;SDS011;64873;50.102;14.434;2023-04-15T01:49:32;2.08;;;1.13;;
76127;SDS011;64873;50.102;14.434;2023-04-15T01:51:58;1.98;;;1.20;;
76127;SDS011;64873;50.102;14.434;2023-04-15T01:54:23;2.17;;;1.60;;
76127;SDS011;64873;50.102;14.434;2023-04-15T01:56:48;2.75;;;1.35;;
76127;SDS011;64873;50.102;14.434;2023-04-15T01:59:14;2.10;;;1.42;;
76127;SDS011;64873;50.102;14.434;2023-04-15T02:01:39;1.88;;;1.17;;
76127;SDS011;64873;50.102;14.434;2023-04-15T02:04:06;1.95;;;1.10;;
76127;SDS011;64873;50.102;14.434;2023-04-15T02:06:32;3.05;;;1.48;;
76127;SDS011;64873;50.102;14.434;2023-04-15T02:08:57;1.75;;;1.10;;
76127;SDS011;64873;50.102;14.434;2023-04-15T02:11:23;2.00;;;1.05;;
76127;SDS011;64873;50.102;14.434;2023-04-15T02:13:48;1.42;;;0.93;;
76127;SDS011;64873;50.102;14.434;2023-04-15T02:16:17;4.82;;;1.30;;
76127;SDS011;64873;50.102;14.434;2023-04-15T02:18:43;0.93;;;0.73;;
76127;SDS011;64873;50.102;14.434;2023-04-15T02:21:09;2.72;;;1.15;;
76127;SDS011;64873;50.102;14.434;2023-04-15T02:23:35;1.65;;;0.90;;
76127;SDS011;64873;50.102;14.434;2023-04-15T02:26:00;1.17;;;0.60;;
76127;SDS011;64873;50.102;14.434;2023-04-15T02:28:26;1.55;;;0.65;;
76127;SDS011;64873;50.102;14.434;2023-04-15T02:30:51;1.58;;;0.80;;
76127;SDS011;64873;50.102;14.434;2023-04-15T02:33:18;1.30;;;0.90;;
76127;SDS011;64873;50.102;14.434;2023-04-15T02:35:43;1.35;;;0.77;;
76127;SDS011;64873;50.102;14.434;2023-04-15T02:38:10;1.83;;;1.00;;
76127;SDS011;64873;50.102;14.434;2023-04-15T02:40:35;2.78;;;1.10;;
76127;SDS011;64873;50.102;14.434;2023-04-15T02:43:01;3.55;;;1.25;;
76127;SDS011;64873;50.102;14.434;2023-04-15T02:45:27;2.45;;;0.90;;
76127;SDS011;64873;50.102;14.434;2023-04-15T02:47:52;1.25;;;0.77;;
76127;SDS011;64873;50.102;14.434;2023-04-15T02:50:18;0.98;;;0.65;;
76127;SDS011;64873;50.102;14.434;2023-04-15T02:52:44;1.45;;;0.90;;
76127;SDS011;64873;50.102;14.434;2023-04-15T02:55:09;2.15;;;1.00;;
76127;SDS011;64873;50.102;14.434;2023-04-15T02:57:35;1.65;;;1.05;;
76127;SDS011;64873;50.102;14.434;2023-04-15T03:00:05;1.73;;;0.73;;
76127;SDS011;64873;50.102;14.434;2023-04-15T03:02:36;0.82;;;0.60;;
76127;SDS011;64873;50.102;14.434;2023-04-15T03:05:03;1.52;;;0.93;;
76127;SDS011;64873;50.102;14.434;2023-04-15T03:07:30;1.35;;;0.90;;
76127;SDS011;64873;50.102;14.434;2023-04-15T03:09:55;1.52;;;0.90;;
76127;SDS011;64873;50.102;14.434;2023-04-15T03:12:21;1.13;;;0.70;;
76127;SDS011;64873;50.102;14.434;2023-04-15T03:14:46;1.70;;;0.82;;
76127;SDS011;64873;50.102;14.434;2023-04-15T03:17:12;1.38;;;1.00;;
76127;SDS011;64873;50.102;14.434;2023-04-15T03:19:37;1.80;;;0.90;;
76127;SDS011;64873;50.102;14.434;2023-04-15T03:22:03;1.65;;;1.10;;
76127;SDS011;64873;50.102;14.434;2023-04-15T03:24:28;4.75;;;1.10;;
76127;SDS011;64873;50.102;14.434;2023-04-15T03:26:54;1.50;;;1.10;;
76127;SDS011;64873;50.102;14.434;2023-04-15T03:29:21;1.67;;;0.98;;
76127;SDS011;64873;50.102;14.434;2023-04-15T03:31:47;1.23;;;0.80;;
76127;SDS011;64873;50.102;14.434;2023-04-15T03:34:12;4.13;;;1.50;;
76127;SDS011;64873;50.102;14.434;2023-04-15T03:36:38;2.13;;;1.45;;
76127;SDS011;64873;50.102;14.434;2023-04-15T03:39:03;1.90;;;1.48;;
76127;SDS011;64873;50.102;14.434;2023-04-15T03:41:29;2.60;;;1.85;;
76127;SDS011;64873;50.102;14.434;2023-04-15T03:43:55;2.47;;;1.85;;
76127;SDS011;64873;50.102;14.434;2023-04-15T03:46:20;2.55;;;2.13;;
76127;SDS011;64873;50.102;14.434;2023-04-15T03:48:46;3.13;;;2.53;;
76127;SDS011;64873;50.102;14.434;2023-04-15T03:51:12;4.38;;;2.80;;
76127;SDS011;64873;50.102;14.434;2023-04-15T03:53:37;3.90;;;3.13;;
76127;SDS011;64873;50.102;14.434;2023-04-15T03:56:03;6.90;;;4.18;;
76127;SDS011;64873;50.102;14.434;2023-04-15T03:58:28;5.60;;;4.53;;
76127;SDS011;64873;50.102;14.434;2023-04-15T04:00:53;6.20;;;5.10;;
76127;SDS011;64873;50.102;14.434;2023-04-15T04:03:19;6.82;;;5.97;;
76127;SDS011;64873;50.102;14.434;2023-04-15T04:05:45;6.63;;;5.40;;
76127;SDS011;64873;50.102;14.434;2023-04-15T04:08:10;6.15;;;5.30;;
76127;SDS011;64873;50.102;14.434;2023-04-15T04:10:38;9.73;;;8.57;;
76127;SDS011;64873;50.102;14.434;2023-04-15T04:13:03;9.10;;;7.40;;
76127;SDS011;64873;50.102;14.434;2023-04-15T04:15:29;9.07;;;7.18;;
76127;SDS011;64873;50.102;14.434;2023-04-15T04:17:54;9.48;;;7.35;;
76127;SDS011;64873;50.102;14.434;2023-04-15T04:20:20;6.90;;;5.55;;
76127;SDS011;64873;50.102;14.434;2023-04-15T04:22:45;8.75;;;6.10;;
76127;SDS011;64873;50.102;14.434;2023-04-15T04:25:11;8.25;;;6.40;;
76127;SDS011;64873;50.102;14.434;2023-04-15T04:27:36;7.63;;;5.82;;
76127;SDS011;64873;50.102;14.434;2023-04-15T04:30:02;6.70;;;5.15;;
76127;SDS011;64873;50.102;14.434;2023-04-15T04:32:28;6.20;;;5.30;;
76127;SDS011;64873;50.102;14.434;2023-04-15T04:34:53;8.25;;;4.78;;
76127;SDS011;64873;50.102;14.434;2023-04-15T04:37:19;6.75;;;4.57;;
76127;SDS011;64873;50.102;14.434;2023-04-15T04:39:45;7.88;;;4.28;;
76127;SDS011;64873;50.102;14.434;2023-04-15T04:42:10;4.78;;;3.83;;
76127;SDS011;64873;50.102;14.434;2023-04-15T04:44:36;8.02;;;4.70;;
76127;SDS011;64873;50.102;14.434;2023-04-15T04:47:02;5.72;;;4.30;;
76127;SDS011;64873;50.102;14.434;2023-04-15T04:49:27;5.20;;;4.13;;
76127;SDS011;64873;50.102;14.434;2023-04-15T04:51:52;6.80;;;4.35;;
76127;SDS011;64873;50.102;14.434;2023-04-15T04:54:18;6.50;;;4.70;;
76127;SDS011;64873;50.102;14.434;2023-04-15T04:56:43;7.20;;;4.80;;
76127;SDS011;64873;50.102;14.434;2023-04-15T04:59:09;5.43;;;4.07;;
76127;SDS011;64873;50.102;14.434;2023-04-15T05:01:34;5.07;;;4.10;;
76127;SDS011;64873;50.102;14.434;2023-04-15T05:04:00;5.45;;;4.38;;
76127;SDS011;64873;50.102;14.434;2023-04-15T05:06:25;5.75;;;4.10;;
76127;SDS011;64873;50.102;14.434;2023-04-15T05:08:51;4.93;;;4.00;;
76127;SDS011;64873;50.102;14.434;2023-04-15T05:11:17;4.80;;;3.63;;
76127;SDS011;64873;50.102;14.434;2023-04-15T05:13:42;6.57;;;4.53;;
76127;SDS011;64873;50.102;14.434;2023-04-15T05:16:07;4.45;;;3.70;;
76127;SDS011;64873;50.102;14.434;2023-04-15T05:18:33;5.50;;;4.65;;
76127;SDS011;64873;50.102;14.434;2023-04-15T05:20:59;4.82;;;4.00;;
76127;SDS011;64873;50.102;14.434;2023-04-15T05:23:24;4.68;;;3.83;;
76127;SDS011;64873;50.102;14.434;2023-04-15T05:25:50;5.75;;;4.43;;
76127;SDS011;64873;50.102;14.434;2023-04-15T05:28:15;5.38;;;4.32;;
76127;SDS011;64873;50.102;14.434;2023-04-15T05:30:41;5.68;;;4.22;;
76127;SDS011;64873;50.102;14.434;2023-04-15T05:33:06;4.55;;;3.75;;
76127;SDS011;64873;50.102;14.434;2023-04-15T05:35:32;4.53;;;3.67;;
76127;SDS011;64873;50.102;14.434;2023-04-15T05:37:57;4.13;;;3.35;;
76127;SDS011;64873;50.102;14.434;2023-04-15T05:40:23;4.00;;;3.08;;
76127;SDS011;64873;50.102;14.434;2023-04-15T05:42:49;3.47;;;2.95;;
76127;SDS011;64873;50.102;14.434;2023-04-15T05:45:14;4.18;;;2.78;;
76127;SDS011;64873;50.102;14.434;2023-04-15T05:47:39;3.75;;;2.70;;
76127;SDS011;64873;50.102;14.434;2023-04-15T05:50:05;3.67;;;2.78;;
76127;SDS011;64873;50.102;14.434;2023-04-15T05:52:31;4.47;;;2.35;;
76127;SDS011;64873;50.102;14.434;2023-04-15T05:54:56;3.15;;;2.55;;
76127;SDS011;64873;50.102;14.434;2023-04-15T05:57:22;3.00;;;2.50;;
76127;SDS011;64873;50.102;14.434;2023-04-15T05:59:47;3.88;;;2.72;;
76127;SDS011;64873;50.102;14.434;2023-04-15T06:02:13;2.90;;;2.30;;
76127;SDS011;64873;50.102;14.434;2023-04-15T06:04:38;3.30;;;2.60;;
76127;SDS011;64873;50.102;14.434;2023-04-15T06:07:04;3.70;;;2.72;;
76127;SDS011;64873;50.102;14.434;2023-04-15T06:09:30;3.80;;;2.80;;
76127;SDS011;64873;50.102;14.434;2023-04-15T06:11:55;3.70;;;3.08;;
76127;SDS011;64873;50.102;14.434;2023-04-15T06:14:23;3.15;;;2.50;;
76127;SDS011;64873;50.102;14.434;2023-04-15T06:16:49;3.10;;;2.60;;
76127;SDS011;64873;50.102;14.434;2023-04-15T06:19:14;3.40;;;2.35;;
76127;SDS011;64873;50.102;14.434;2023-04-15T06:21:40;3.42;;;2.30;;
76127;SDS011;64873;50.102;14.434;2023-04-15T06:24:06;3.00;;;2.22;;
76127;SDS011;64873;50.102;14.434;2023-04-15T06:26:31;3.58;;;2.40;;
76127;SDS011;64873;50.102;14.434;2023-04-15T06:28:57;2.80;;;2.20;;
76127;SDS011;64873;50.102;14.434;2023-04-15T06:31:22;2.95;;;2.38;;
76127;SDS011;64873;50.102;14.434;2023-04-15T06:33:48;2.72;;;2.20;;
76127;SDS011;64873;50.102;14.434;2023-04-15T06:36:13;2.97;;;2.10;;
76127;SDS011;64873;50.102;14.434;2023-04-15T06:38:39;4.65;;;2.45;;
76127;SDS011;64873;50.102;14.434;2023-04-15T06:41:04;2.47;;;2.05;;
76127;SDS011;64873;50.102;14.434;2023-04-15T06:43:30;4.15;;;2.20;;
76127;SDS011;64873;50.102;14.434;2023-04-15T06:45:56;2.55;;;1.88;;
76127;SDS011;64873;50.102;14.434;2023-04-15T06:48:21;5.20;;;2.25;;
76127;SDS011;64873;50.102;14.434;2023-04-15T06:50:47;5.97;;;2.38;;
76127;SDS011;64873;50.102;14.434;2023-04-15T06:53:13;3.25;;;2.20;;
76127;SDS011;64873;50.102;14.434;2023-04-15T06:55:39;3.90;;;2.63;;
76127;SDS011;64873;50.102;14.434;2023-04-15T06:58:05;6.10;;;2.97;;
76127;SDS011;64873;50.102;14.434;2023-04-15T07:00:31;1.98;;;1.40;;
76127;SDS011;64873;50.102;14.434;2023-04-15T07:02:57;1.67;;;1.00;;
76127;SDS011;64873;50.102;14.434;2023-04-15T07:05:24;1.80;;;1.10;;
76127;SDS011;64873;50.102;14.434;2023-04-15T07:07:50;1.50;;;0.90;;
76127;SDS011;64873;50.102;14.434;2023-04-15T07:10:15;1.95;;;1.08;;
76127;SDS011;64873;50.102;14.434;2023-04-15T07:12:41;2.38;;;0.90;;
76127;SDS011;64873;50.102;14.434;2023-04-15T07:15:06;0.98;;;0.68;;
76127;SDS011;64873;50.102;14.434;2023-04-15T07:17:32;1.10;;;0.63;;
76127;SDS011;64873;50.102;14.434;2023-04-15T07:19:58;0.60;;;0.50;;
76127;SDS011;64873;50.102;14.434;2023-04-15T07:22:23;0.93;;;0.50;;
76127;SDS011;64873;50.102;14.434;2023-04-15T07:24:49;2.67;;;0.90;;
76127;SDS011;64873;50.102;14.434;2023-04-15T07:27:14;1.55;;;0.93;;
76127;SDS011;64873;50.102;14.434;2023-04-15T07:29:40;1.33;;;0.90;;
76127;SDS011;64873;50.102;14.434;2023-04-15T07:32:06;1.02;;;0.60;;
76127;SDS011;64873;50.102;14.434;2023-04-15T07:34:31;0.82;;;0.52;;
76127;SDS011;64873;50.102;14.434;2023-04-15T07:36:57;0.90;;;0.70;;
76127;SDS011;64873;50.102;14.434;2023-04-15T07:39:22;1.30;;;0.70;;
76127;SDS011;64873;50.102;14.434;2023-04-15T07:41:47;1.42;;;0.80;;
76127;SDS011;64873;50.102;14.434;2023-04-15T07:44:13;1.70;;;0.70;;
76127;SDS011;64873;50.102;14.434;2023-04-15T07:46:38;2.08;;;0.70;;
76127;SDS011;64873;50.102;14.434;2023-04-15T07:49:04;2.22;;;1.00;;
76127;SDS011;64873;50.102;14.434;2023-04-15T07:51:29;1.92;;;1.00;;
76127;SDS011;64873;50.102;14.434;2023-04-15T07:53:56;1.92;;;1.30;;
76127;SDS011;64873;50.102;14.434;2023-04-15T07:56:21;1.85;;;1.10;;
76127;SDS011;64873;50.102;14.434;2023-04-15T07:58:47;2.13;;;1.00;;
76127;SDS011;64873;50.102;14.434;2023-04-15T08:01:12;4.50;;;1.40;;
76127;SDS011;64873;50.102;14.434;2023-04-15T08:03:38;1.75;;;0.90;;
76127;SDS011;64873;50.102;14.434;2023-04-15T08:06:03;1.70;;;0.90;;
76127;SDS011;64873;50.102;14.434;2023-04-15T08:08:29;1.30;;;0.80;;
76127;SDS011;64873;50.102;14.434;2023-04-15T08:10:55;1.00;;;0.60;;
76127;SDS011;64873;50.102;14.434;2023-04-15T08:13:20;1.40;;;0.90;;
76127;SDS011;64873;50.102;14.434;2023-04-15T08:15:52;0.98;;;0.60;;
76127;SDS011;64873;50.102;14.434;2023-04-15T08:18:37;1.30;;;0.75;;
76127;SDS011;64873;50.102;14.434;2023-04-15T08:21:03;1.95;;;0.88;;
76127;SDS011;64873;50.102;14.434;2023-04-15T08:23:28;1.45;;;0.70;;
76127;SDS011;64873;50.102;14.434;2023-04-15T08:25:54;3.08;;;0.80;;
76127;SDS011;64873;50.102;14.434;2023-04-15T08:28:19;1.60;;;0.73;;
76127;SDS011;64873;50.102;14.434;2023-04-15T08:30:45;1.83;;;0.90;;
76127;SDS011;64873;50.102;14.434;2023-04-15T08:33:10;2.38;;;1.00;;
76127;SDS011;64873;50.102;14.434;2023-04-15T08:35:36;1.65;;;0.80;;
76127;SDS011;64873;50.102;14.434;2023-04-15T08:38:02;1.08;;;0.80;;
76127;SDS011;64873;50.102;14.434;2023-04-15T08:40:27;1.52;;;0.70;;
76127;SDS011;64873;50.102;14.434;2023-04-15T08:43:12;1.08;;;0.75;;
76127;SDS011;64873;50.102;14.434;2023-04-15T08:45:43;1.98;;;0.80;;
76127;SDS011;64873;50.102;14.434;2023-04-15T08:48:12;0.90;;;0.70;;
76127;SDS011;64873;50.102;14.434;2023-04-15T08:50:41;1.27;;;0.80;;
76127;SDS011;64873;50.102;14.434;2023-04-15T08:53:06;1.50;;;0.80;;
76127;SDS011;64873;50.102;14.434;2023-04-15T08:55:33;2.28;;;0.73;;
76127;SDS011;64873;50.102;14.434;2023-04-15T08:58:01;1.40;;;0.93;;
76127;SDS011;64873;50.102;14.434;2023-04-15T09:00:31;2.95;;;1.00;;
76127;SDS011;64873;50.102;14.434;2023-04-15T09:02:58;1.45;;;1.05;;
76127;SDS011;64873;50.102;14.434;2023-04-15T09:05:23;19.02;;;11.73;;
76127;SDS011;64873;50.102;14.434;2023-04-15T09:07:52;2.30;;;1.30;;
76127;SDS011;64873;50.102;14.434;2023-04-15T09:10:17;1.83;;;1.25;;
76127;SDS011;64873;50.102;14.434;2023-04-15T09:12:42;1.58;;;1.02;;
76127;SDS011;64873;50.102;14.434;2023-04-15T09:15:11;1.60;;;1.02;;
76127;SDS011;64873;50.102;14.434;2023-04-15T09:17:41;1.88;;;0.93;;
76127;SDS011;64873;50.102;14.434;2023-04-15T09:22:37;2.67;;;1.10;;
76127;SDS011;64873;50.102;14.434;2023-04-15T09:27:49;2.45;;;1.48;;
76127;SDS011;64873;50.102;14.434;2023-04-15T09:30:15;2.67;;;1.20;;
76127;SDS011;64873;50.102;14.434;2023-04-15T09:32:50;1.98;;;1.42;;
76127;SDS011;64873;50.102;14.434;2023-04-15T09:35:16;4.03;;;1.52;;
76127;SDS011;64873;50.102;14.434;2023-04-15T09:37:42;3.15;;;1.90;;
76127;SDS011;64873;50.102;14.434;2023-04-15T09:40:07;2.05;;;1.42;;
76127;SDS011;64873;50.102;14.434;2023-04-15T09:42:34;3.05;;;1.67;;
76127;SDS011;64873;50.102;14.434;2023-04-15T09:45:09;3.42;;;1.63;;
76127;SDS011;64873;50.102;14.434;2023-04-15T09:47:36;3.88;;;1.65;;
76127;SDS011;64873;50.102;14.434;2023-04-15T09:50:01;2.05;;;1.40;;
76127;SDS011;64873;50.102;14.434;2023-04-15T09:52:27;1.90;;;1.60;;
76127;SDS011;64873;50.102;14.434;2023-04-15T09:54:53;2.35;;;1.52;;
76127;SDS011;64873;50.102;14.434;2023-04-15T09:57:23;2.72;;;1.83;;
76127;SDS011;64873;50.102;14.434;2023-04-15T09:59:49;2.88;;;1.90;;
76127;SDS011;64873;50.102;14.434;2023-04-15T10:02:15;5.07;;;1.77;;
76127;SDS011;64873;50.102;14.434;2023-04-15T10:04:43;2.70;;;1.70;;
76127;SDS011;64873;50.102;14.434;2023-04-15T10:07:10;2.83;;;1.58;;
76127;SDS011;64873;50.102;14.434;2023-04-15T10:09:37;4.47;;;1.80;;
76127;SDS011;64873;50.102;14.434;2023-04-15T10:12:04;3.80;;;1.58;;
76127;SDS011;64873;50.102;14.434;2023-04-15T10:14:35;2.28;;;1.65;;
76127;SDS011;64873;50.102;14.434;2023-04-15T10:17:02;2.88;;;1.90;;
76127;SDS011;64873;50.102;14.434;2023-04-15T10:19:32;2.70;;;2.03;;
76127;SDS011;64873;50.102;14.434;2023-04-15T10:22:01;3.78;;;1.70;;
76127;SDS011;64873;50.102;14.434;2023-04-15T10:24:27;2.50;;;1.70;;
76127;SDS011;64873;50.102;14.434;2023-04-15T10:26:52;2.83;;;1.60;;
76127;SDS011;64873;50.102;14.434;2023-04-15T10:29:19;2.67;;;1.85;;
76127;SDS011;64873;50.102;14.434;2023-04-15T10:31:45;2.50;;;1.45;;
76127;SDS011;64873;50.102;14.434;2023-04-15T10:34:12;1.98;;;1.40;;
76127;SDS011;64873;50.102;14.434;2023-04-15T10:36:37;1.70;;;1.30;;
76127;SDS011;64873;50.102;14.434;2023-04-15T10:39:20;3.60;;;1.88;;
76127;SDS011;64873;50.102;14.434;2023-04-15T10:42:14;2.40;;;1.60;;
76127;SDS011;64873;50.102;14.434;2023-04-15T10:44:41;2.60;;;1.65;;
76127;SDS011;64873;50.102;14.434;2023-04-15T10:47:09;1.92;;;1.30;;
76127;SDS011;64873;50.102;14.434;2023-04-15T10:49:42;2.60;;;1.65;;
76127;SDS011;64873;50.102;14.434;2023-04-15T10:52:09;3.95;;;1.70;;
76127;SDS011;64873;50.102;14.434;2023-04-15T10:54:35;2.72;;;1.80;;
76127;SDS011;64873;50.102;14.434;2023-04-15T10:59:28;4.00;;;2.25;;
76127;SDS011;64873;50.102;14.434;2023-04-15T11:02:01;2.80;;;2.00;;
76127;SDS011;64873;50.102;14.434;2023-04-15T11:12:57;3.50;;;1.95;;
76127;SDS011;64873;50.102;14.434;2023-04-15T11:15:33;2.40;;;1.80;;
76127;SDS011;64873;50.102;14.434;2023-04-15T11:18:11;2.83;;;1.83;;
76127;SDS011;64873;50.102;14.434;2023-04-15T11:20:48;2.63;;;1.55;;
76127;SDS011;64873;50.102;14.434;2023-04-15T11:23:19;2.80;;;1.60;;
76127;SDS011;64873;50.102;14.434;2023-04-15T11:26:07;3.58;;;1.55;;
76127;SDS011;64873;50.102;14.434;2023-04-15T11:28:36;4.22;;;1.70;;
76127;SDS011;64873;50.102;14.434;2023-04-15T11:31:05;2.05;;;1.45;;
76127;SDS011;64873;50.102;14.434;2023-04-15T11:33:36;2.80;;;1.80;;
76127;SDS011;64873;50.102;14.434;2023-04-15T11:36:02;2.65;;;1.70;;
76127;SDS011;64873;50.102;14.434;2023-04-15T11:38:28;1.85;;;1.33;;
76127;SDS011;64873;50.102;14.434;2023-04-15T11:40:54;2.65;;;1.73;;
76127;SDS011;64873;50.102;14.434;2023-04-15T11:43:20;2.80;;;1.60;;
76127;SDS011;64873;50.102;14.434;2023-04-15T11:45:48;3.08;;;1.42;;
76127;SDS011;64873;50.102;14.434;2023-04-15T11:48:15;5.50;;;2.00;;
76127;SDS011;64873;50.102;14.434;2023-04-15T11:50:41;2.80;;;1.98;;
76127;SDS011;64873;50.102;14.434;2023-04-15T11:53:11;3.13;;;1.77;;
76127;SDS011;64873;50.102;14.434;2023-04-15T11:55:45;2.97;;;1.92;;
76127;SDS011;64873;50.102;14.434;2023-04-15T11:58:16;4.60;;;1.90;;
76127;SDS011;64873;50.102;14.434;2023-04-15T12:00:48;3.63;;;2.55;;
76127;SDS011;64873;50.102;14.434;2023-04-15T12:03:30;3.03;;;1.92;;
76127;SDS011;64873;50.102;14.434;2023-04-15T12:11:26;3.25;;;1.85;;
76127;SDS011;64873;50.102;14.434;2023-04-15T12:13:55;2.30;;;1.80;;
76127;SDS011;64873;50.102;14.434;2023-04-15T12:16:22;4.00;;;2.08;;
76127;SDS011;64873;50.102;14.434;2023-04-15T12:18:52;3.17;;;2.00;;
76127;SDS011;64873;50.102;14.434;2023-04-15T12:21:23;2.17;;;1.60;;
76127;SDS011;64873;50.102;14.434;2023-04-15T12:23:55;3.42;;;2.00;;
76127;SDS011;64873;50.102;14.434;2023-04-15T12:26:28;5.07;;;2.10;;
76127;SDS011;64873;50.102;14.434;2023-04-15T12:29:15;4.05;;;1.90;;
76127;SDS011;64873;50.102;14.434;2023-04-15T12:34:27;3.42;;;2.05;;
76127;SDS011;64873;50.102;14.434;2023-04-15T12:36:57;2.72;;;2.00;;
76127;SDS011;64873;50.102;14.434;2023-04-15T12:39:25;4.15;;;2.03;;
76127;SDS011;64873;50.102;14.434;2023-04-15T12:41:52;3.47;;;2.20;;
76127;SDS011;64873;50.102;14.434;2023-04-15T12:44:18;4.07;;;2.10;;
76127;SDS011;64873;50.102;14.434;2023-04-15T12:46:44;2.90;;;1.80;;
76127;SDS011;64873;50.102;14.434;2023-04-15T12:49:10;2.58;;;1.85;;
76127;SDS011;64873;50.102;14.434;2023-04-15T12:51:38;10.90;;;2.55;;
76127;SDS011;64873;50.102;14.434;2023-04-15T12:54:04;3.90;;;2.08;;
76127;SDS011;64873;50.102;14.434;2023-04-15T12:56:29;4.63;;;2.15;;
76127;SDS011;64873;50.102;14.434;2023-04-15T12:58:55;3.55;;;1.80;;
76127;SDS011;64873;50.102;14.434;2023-04-15T13:01:20;3.15;;;1.70;;
76127;SDS011;64873;50.102;14.434;2023-04-15T13:03:45;3.10;;;1.70;;
76127;SDS011;64873;50.102;14.434;2023-04-15T13:06:12;2.63;;;1.70;;
76127;SDS011;64873;50.102;14.434;2023-04-15T13:08:37;5.25;;;1.45;;
76127;SDS011;64873;50.102;14.434;2023-04-15T13:11:03;2.13;;;1.50;;
76127;SDS011;64873;50.102;14.434;2023-04-15T13:13:28;2.28;;;1.55;;
76127;SDS011;64873;50.102;14.434;2023-04-15T13:15:55;1.95;;;1.27;;
76127;SDS011;64873;50.102;14.434;2023-04-15T13:18:21;3.13;;;1.58;;
76127;SDS011;64873;50.102;14.434;2023-04-15T13:20:47;2.72;;;1.45;;
76127;SDS011;64873;50.102;14.434;2023-04-15T13:23:13;1.92;;;1.38;;
76127;SDS011;64873;50.102;14.434;2023-04-15T13:25:39;3.13;;;1.70;;
76127;SDS011;64873;50.102;14.434;2023-04-15T13:28:05;3.10;;;1.80;;
76127;SDS011;64873;50.102;14.434;2023-04-15T13:30:30;2.38;;;1.60;;
76127;SDS011;64873;50.102;14.434;2023-04-15T13:32:56;5.28;;;1.63;;
76127;SDS011;64873;50.102;14.434;2023-04-15T13:35:21;2.55;;;1.50;;
76127;SDS011;64873;50.102;14.434;2023-04-15T13:37:47;2.38;;;1.45;;
76127;SDS011;64873;50.102;14.434;2023-04-15T13:40:12;2.13;;;1.60;;
76127;SDS011;64873;50.102;14.434;2023-04-15T13:42:38;3.22;;;1.90;;
76127;SDS011;64873;50.102;14.434;2023-04-15T13:45:03;3.13;;;2.00;;
76127;SDS011;64873;50.102;14.434;2023-04-15T13:47:29;2.88;;;1.80;;
76127;SDS011;64873;50.102;14.434;2023-04-15T13:49:55;2.58;;;1.60;;
76127;SDS011;64873;50.102;14.434;2023-04-15T13:52:21;3.00;;;2.28;;
76127;SDS011;64873;50.102;14.434;2023-04-15T13:54:47;3.58;;;1.70;;
76127;SDS011;64873;50.102;14.434;2023-04-15T13:57:12;5.15;;;1.30;;
76127;SDS011;64873;50.102;14.434;2023-04-15T13:59:38;3.17;;;1.63;;
76127;SDS011;64873;50.102;14.434;2023-04-15T14:02:03;2.30;;;1.60;;
76127;SDS011;64873;50.102;14.434;2023-04-15T14:04:30;3.08;;;1.58;;
76127;SDS011;64873;50.102;14.434;2023-04-15T14:06:56;1.77;;;1.25;;
76127;SDS011;64873;50.102;14.434;2023-04-15T14:09:21;1.65;;;1.20;;
76127;SDS011;64873;50.102;14.434;2023-04-15T14:11:48;1.90;;;1.30;;
76127;SDS011;64873;50.102;14.434;2023-04-15T14:14:14;1.55;;;1.20;;
76127;SDS011;64873;50.102;14.434;2023-04-15T14:16:40;1.55;;;1.20;;
76127;SDS011;64873;50.102;14.434;2023-04-15T14:19:05;2.67;;;1.60;;
76127;SDS011;64873;50.102;14.434;2023-04-15T14:21:31;2.47;;;1.25;;
76127;SDS011;64873;50.102;14.434;2023-04-15T14:23:57;2.05;;;1.15;;
76127;SDS011;64873;50.102;14.434;2023-04-15T14:26:23;2.47;;;1.50;;
76127;SDS011;64873;50.102;14.434;2023-04-15T14:28:48;2.05;;;1.23;;
76127;SDS011;64873;50.102;14.434;2023-04-15T14:31:14;2.08;;;1.20;;
76127;SDS011;64873;50.102;14.434;2023-04-15T14:33:40;1.73;;;1.08;;
76127;SDS011;64873;50.102;14.434;2023-04-15T14:36:06;2.97;;;1.30;;
76127;SDS011;64873;50.102;14.434;2023-04-15T14:38:34;2.17;;;1.40;;
76127;SDS011;64873;50.102;14.434;2023-04-15T14:41:03;3.47;;;1.50;;
76127;SDS011;64873;50.102;14.434;2023-04-15T14:43:29;1.90;;;1.40;;
76127;SDS011;64873;50.102;14.434;2023-04-15T14:45:54;2.00;;;1.42;;
76127;SDS011;64873;50.102;14.434;2023-04-15T14:48:20;2.50;;;1.25;;
76127;SDS011;64873;50.102;14.434;2023-04-15T14:50:46;2.55;;;1.45;;
76127;SDS011;64873;50.102;14.434;2023-04-15T14:53:11;2.10;;;1.35;;
76127;SDS011;64873;50.102;14.434;2023-04-15T14:55:36;2.42;;;1.40;;